createdAt,value
2018-12-18T00:00:09.705Z,3.97
2018-12-18T00:02:36.420Z,3.73
2018-12-18T00:05:05.739Z,4.22
2018-12-18T00:07:32.455Z,4.20
2018-12-18T00:09:59.137Z,4.37
2018-12-18T00:12:25.855Z,3.83
2018-12-18T00:14:52.628Z,4.13
2018-12-18T00:17:19.329Z,4.40
2018-12-18T00:19:46.220Z,4.00
2018-12-18T00:22:12.982Z,4.00
2018-12-18T00:24:39.753Z,4.23
2018-12-18T00:27:06.428Z,2.90
2018-12-18T00:29:33.268Z,4.43
2018-12-18T00:31:59.946Z,5.53
2018-12-18T00:34:26.651Z,4.17
2018-12-18T00:36:53.348Z,3.57
2018-12-18T00:39:20.067Z,4.50
2018-12-18T00:41:46.751Z,3.07
2018-12-18T00:44:13.542Z,3.30
2018-12-18T00:46:40.223Z,3.77
2018-12-18T00:49:06.926Z,3.03
2018-12-18T00:51:33.609Z,2.87
2018-12-18T00:54:00.319Z,3.47
2018-12-18T00:56:26.992Z,3.73
2018-12-18T00:58:53.749Z,3.10
2018-12-18T01:01:20.428Z,3.90
2018-12-18T01:03:52.760Z,3.20
2018-12-18T01:06:15.849Z,2.90
2018-12-18T01:08:42.694Z,3.37
2018-12-18T01:11:09.420Z,3.00
2018-12-18T01:13:36.119Z,2.67
2018-12-18T01:16:02.796Z,2.70
2018-12-18T01:18:29.581Z,3.23
2018-12-18T01:20:56.319Z,2.70
2018-12-18T01:23:23.186Z,3.83
2018-12-18T01:25:49.928Z,2.70
2018-12-18T01:28:16.654Z,3.90
2018-12-18T01:30:43.455Z,2.77
2018-12-18T01:33:10.212Z,4.63
2018-12-18T01:35:36.913Z,2.53
2018-12-18T01:38:03.591Z,2.60
2018-12-18T01:40:30.297Z,2.90
2018-12-18T01:42:56.972Z,2.97
2018-12-18T01:45:23.797Z,2.80
2018-12-18T01:47:50.480Z,2.90
2018-12-18T01:50:17.281Z,3.20
2018-12-18T01:52:44.117Z,2.30
2018-12-18T01:55:10.876Z,3.67
2018-12-18T01:57:37.552Z,2.73
2018-12-18T02:00:04.348Z,2.63
2018-12-18T02:02:31.037Z,3.90
2018-12-18T02:04:57.742Z,2.00
2018-12-18T02:07:24.530Z,2.60
2018-12-18T02:09:51.339Z,3.23
2018-12-18T02:12:18.039Z,2.77
2018-12-18T02:14:44.911Z,2.07
2018-12-18T02:17:11.579Z,2.60
2018-12-18T02:19:38.299Z,2.40
2018-12-18T02:22:05.000Z,3.97
2018-12-18T02:24:31.715Z,2.60
2018-12-18T02:26:58.391Z,2.80
2018-12-18T02:29:25.096Z,4.13
2018-12-18T02:31:51.771Z,3.10
2018-12-18T02:34:18.477Z,2.30
2018-12-18T02:36:45.402Z,2.55
2018-12-18T02:39:12.125Z,2.87
2018-12-18T02:41:38.815Z,2.70
2018-12-18T02:44:05.520Z,2.30
2018-12-18T02:46:32.201Z,2.50
2018-12-18T02:48:58.901Z,2.30
2018-12-18T02:51:25.600Z,2.90
2018-12-18T02:53:52.316Z,2.53
2018-12-18T02:56:18.996Z,2.50
2018-12-18T02:58:45.810Z,2.17
2018-12-18T03:01:12.536Z,2.23
2018-12-18T03:03:39.213Z,2.37
2018-12-18T03:06:05.922Z,1.60
2018-12-18T03:08:32.606Z,2.30
2018-12-18T03:10:59.322Z,2.43
2018-12-18T03:13:26.063Z,2.37
2018-12-18T03:15:52.766Z,1.87
2018-12-18T03:18:19.557Z,2.93
2018-12-18T03:20:46.476Z,2.20
2018-12-18T03:23:13.209Z,2.50
2018-12-18T03:25:39.916Z,2.30
2018-12-18T03:28:06.595Z,1.50
2018-12-18T03:30:33.298Z,2.47
2018-12-18T03:33:00.052Z,1.97
2018-12-18T03:35:26.764Z,2.17
2018-12-18T03:37:53.438Z,1.93
2018-12-18T03:40:20.150Z,2.37
2018-12-18T03:42:46.986Z,1.63
2018-12-18T03:45:13.784Z,2.50
2018-12-18T03:47:40.464Z,2.27
2018-12-18T03:50:07.262Z,2.20
2018-12-18T03:52:33.939Z,2.07
2018-12-18T03:55:00.646Z,2.20
2018-12-18T03:57:27.325Z,2.23
2018-12-18T03:59:54.040Z,2.17
2018-12-18T04:02:20.724Z,1.50
2018-12-18T04:04:47.531Z,2.60
2018-12-18T04:07:14.211Z,2.00
2018-12-18T04:09:40.934Z,1.80
2018-12-18T04:12:08.685Z,1.93
2018-12-18T04:14:35.874Z,1.70
2018-12-18T04:17:02.567Z,1.90
2018-12-18T04:19:29.272Z,1.97
2018-12-18T04:21:56.083Z,2.47
2018-12-18T04:24:22.808Z,1.60
2018-12-18T04:26:49.563Z,1.87
2018-12-18T04:29:16.654Z,1.73
2018-12-18T04:31:43.367Z,1.67
2018-12-18T04:34:10.050Z,2.10
2018-12-18T04:36:36.756Z,1.50
2018-12-18T04:39:05.412Z,2.10
2018-12-18T04:41:32.148Z,1.53
2018-12-18T04:43:58.827Z,1.83
2018-12-18T04:46:25.573Z,1.67
2018-12-18T04:48:52.320Z,1.47
2018-12-18T04:51:19.051Z,1.80
2018-12-18T04:53:45.826Z,2.00
2018-12-18T04:56:12.536Z,2.10
2018-12-18T04:58:39.217Z,1.70
2018-12-18T05:01:05.925Z,1.97
2018-12-18T05:03:32.609Z,1.67
2018-12-18T05:05:59.318Z,1.60
2018-12-18T05:08:26.031Z,1.77
2018-12-18T05:10:52.903Z,2.27
2018-12-18T05:13:19.599Z,1.37
2018-12-18T05:15:46.469Z,2.00
2018-12-18T05:18:13.141Z,1.77
2018-12-18T05:20:39.845Z,1.17
2018-12-18T05:23:06.525Z,1.43
2018-12-18T05:25:33.241Z,1.67
2018-12-18T05:27:59.931Z,1.63
2018-12-18T05:30:26.693Z,1.87
2018-12-18T05:32:53.505Z,2.07
2018-12-18T05:35:20.298Z,1.67
2018-12-18T05:37:47.119Z,1.40
2018-12-18T05:40:13.872Z,1.80
2018-12-18T05:42:40.552Z,2.20
2018-12-18T05:45:07.270Z,10.30
2018-12-18T05:47:33.962Z,10.10
2018-12-18T05:50:00.671Z,6.03
2018-12-18T05:52:27.519Z,5.90
2018-12-18T05:54:54.258Z,6.33
2018-12-18T05:57:20.943Z,6.23
2018-12-18T05:59:47.870Z,5.53
2018-12-18T06:02:14.584Z,6.43
2018-12-18T06:04:41.276Z,5.33
2018-12-18T06:07:07.992Z,4.47
2018-12-18T06:09:34.680Z,4.83
2018-12-18T06:12:01.412Z,3.90
2018-12-18T06:14:28.106Z,3.67
2018-12-18T06:16:54.958Z,4.30
2018-12-18T06:19:21.840Z,3.40
2018-12-18T06:21:48.728Z,5.23
2018-12-18T06:24:15.409Z,2.70
2018-12-18T06:26:42.125Z,3.77
2018-12-18T06:29:08.808Z,3.47
2018-12-18T06:31:35.521Z,3.13
2018-12-18T06:34:02.205Z,3.20
2018-12-18T06:36:28.960Z,3.13
2018-12-18T06:38:55.655Z,2.77
2018-12-18T06:41:22.397Z,2.63
2018-12-18T06:43:49.248Z,2.30
2018-12-18T06:46:15.963Z,2.47
2018-12-18T06:48:42.647Z,2.87
2018-12-18T06:51:09.367Z,2.23
2018-12-18T06:53:36.044Z,2.17
2018-12-18T06:56:02.745Z,2.07
2018-12-18T06:58:29.427Z,2.33
2018-12-18T07:00:56.145Z,2.50
2018-12-18T07:03:22.880Z,1.80
2018-12-18T07:05:49.813Z,2.50
2018-12-18T07:08:16.492Z,2.90
2018-12-18T07:10:43.201Z,3.00
2018-12-18T07:13:09.876Z,3.27
2018-12-18T07:15:36.592Z,3.07
2018-12-18T07:18:03.282Z,2.60
2018-12-18T07:20:29.993Z,1.90
2018-12-18T07:22:56.663Z,1.83
2018-12-18T07:25:23.373Z,1.70
2018-12-18T07:27:50.195Z,2.13
2018-12-18T07:30:16.872Z,2.37
2018-12-18T07:32:43.585Z,2.80
2018-12-18T07:35:10.283Z,2.00
2018-12-18T07:37:36.993Z,1.87
2018-12-18T07:40:04.678Z,2.67
2018-12-18T07:42:31.450Z,2.00
2018-12-18T07:44:58.198Z,2.20
2018-12-18T07:47:25.112Z,2.20
2018-12-18T07:49:51.869Z,1.80
2018-12-18T07:52:18.874Z,1.63
2018-12-18T07:54:45.550Z,1.60
2018-12-18T07:57:12.254Z,2.03
2018-12-18T07:59:39.145Z,2.30
2018-12-18T08:02:05.862Z,1.73
2018-12-18T08:04:32.535Z,2.27
2018-12-18T08:06:59.295Z,2.77
2018-12-18T08:09:26.051Z,2.10
2018-12-18T08:11:52.800Z,2.00
2018-12-18T08:14:19.540Z,2.03
2018-12-18T08:16:46.294Z,1.67
2018-12-18T08:19:12.967Z,2.10
2018-12-18T08:21:39.673Z,1.83
2018-12-18T08:24:06.429Z,1.73
2018-12-18T08:26:33.139Z,2.10
2018-12-18T08:28:59.864Z,1.80
2018-12-18T08:31:26.580Z,1.97
2018-12-18T08:33:53.349Z,1.90
2018-12-18T08:36:20.305Z,2.07
2018-12-18T08:38:46.978Z,1.97
2018-12-18T08:41:13.691Z,1.87
2018-12-18T08:43:40.369Z,1.90
2018-12-18T08:46:10.242Z,2.10
2018-12-18T08:48:35.779Z,1.77
2018-12-18T08:51:02.555Z,2.10
2018-12-18T08:53:29.236Z,1.93
2018-12-18T08:55:56.103Z,2.10
2018-12-18T08:58:22.877Z,2.47
2018-12-18T09:00:49.694Z,1.70
2018-12-18T09:03:16.533Z,2.20
2018-12-18T09:05:43.562Z,1.70
2018-12-18T09:08:10.383Z,3.10
2018-12-18T09:10:39.932Z,1.90
2018-12-18T09:13:05.798Z,2.10
2018-12-18T09:15:38.258Z,2.33
2018-12-18T09:18:04.965Z,1.67
2018-12-18T09:20:31.676Z,1.87
2018-12-18T09:22:58.385Z,1.90
2018-12-18T09:25:25.072Z,2.03
2018-12-18T09:27:52.011Z,1.73
2018-12-18T09:30:18.715Z,1.93
2018-12-18T09:32:45.427Z,2.10
2018-12-18T09:35:12.113Z,2.10
2018-12-18T09:37:38.824Z,1.90
2018-12-18T09:40:05.989Z,1.90
2018-12-18T09:42:38.666Z,1.70
2018-12-18T09:45:05.814Z,1.80
2018-12-18T09:47:32.516Z,1.67
2018-12-18T09:49:59.200Z,3.70
2018-12-18T09:52:25.917Z,1.75
2018-12-18T09:54:52.822Z,2.07
2018-12-18T10:00:22.686Z,1.80
2018-12-18T10:02:49.397Z,1.43
2018-12-18T10:05:16.087Z,1.50
2018-12-18T10:07:42.804Z,1.37
2018-12-18T10:10:09.490Z,1.90
2018-12-18T10:12:43.057Z,2.20
2018-12-18T10:15:09.752Z,1.83
2018-12-18T10:17:36.473Z,2.07
2018-12-18T10:20:04.502Z,2.17
2018-12-18T10:22:31.283Z,1.63
2018-12-18T10:25:01.659Z,2.00
2018-12-18T10:27:28.411Z,1.80
2018-12-18T10:29:55.319Z,1.70
2018-12-18T10:32:22.133Z,1.60
2018-12-18T10:34:48.866Z,1.90
2018-12-18T10:37:15.588Z,2.40
2018-12-18T10:39:42.280Z,2.20
2018-12-18T10:42:09.002Z,1.62
2018-12-18T10:44:35.687Z,1.70
2018-12-18T10:47:02.411Z,2.63
2018-12-18T10:49:29.100Z,1.50
2018-12-18T10:51:55.846Z,1.80
2018-12-18T10:54:22.751Z,1.50
2018-12-18T10:56:49.453Z,1.50
2018-12-18T10:59:16.171Z,1.90
2018-12-18T11:01:46.898Z,1.97
2018-12-18T11:04:15.710Z,1.93
2018-12-18T11:06:42.470Z,1.80
2018-12-18T11:09:09.367Z,1.87
2018-12-18T11:11:36.737Z,2.30
2018-12-18T11:14:03.639Z,1.90
2018-12-18T11:16:37.122Z,1.90
2018-12-18T11:18:59.647Z,2.30
2018-12-18T11:21:26.403Z,1.80
2018-12-18T11:23:53.195Z,2.00
2018-12-18T11:26:19.947Z,1.87
2018-12-18T11:28:46.674Z,1.80
2018-12-18T11:31:13.371Z,2.10
2018-12-18T11:33:40.089Z,2.33
2018-12-18T11:36:06.776Z,1.93
2018-12-18T11:38:33.508Z,2.30
2018-12-18T11:41:00.200Z,1.80
2018-12-18T11:43:30.841Z,1.87
2018-12-18T11:45:58.513Z,2.07
2018-12-18T11:48:25.229Z,2.30
2018-12-18T11:50:51.964Z,2.17
2018-12-18T11:53:18.746Z,1.87
2018-12-18T11:55:45.447Z,1.60
2018-12-18T11:58:12.175Z,1.80
2018-12-18T12:00:39.034Z,1.87
2018-12-18T12:03:05.742Z,1.50
2018-12-18T12:05:32.539Z,2.23
2018-12-18T12:07:59.344Z,2.20
2018-12-18T12:10:26.121Z,2.53
2018-12-18T12:12:53.014Z,2.03
2018-12-18T12:15:19.783Z,1.53
2018-12-18T12:17:46.518Z,2.00
2018-12-18T12:20:13.201Z,1.77
2018-12-18T12:22:39.919Z,2.00
2018-12-18T12:25:07.483Z,1.73
2018-12-18T12:27:36.172Z,1.87
2018-12-18T12:30:03.727Z,2.50
2018-12-18T12:32:30.450Z,1.80
2018-12-18T12:34:57.261Z,1.90
2018-12-18T12:37:24.170Z,1.53
2018-12-18T12:39:50.893Z,1.50
2018-12-18T12:42:17.582Z,1.70
2018-12-18T12:44:44.304Z,1.77
2018-12-18T12:47:10.993Z,1.70
2018-12-18T12:49:42.684Z,1.40
2018-12-18T12:52:09.376Z,2.17
2018-12-18T12:54:36.085Z,2.00
2018-12-18T12:57:02.778Z,1.43
2018-12-18T12:59:29.687Z,1.30
2018-12-18T13:01:56.414Z,1.33
2018-12-18T13:04:23.287Z,1.50
2018-12-18T13:06:50.031Z,1.77
2018-12-18T13:09:16.745Z,1.20
2018-12-18T13:11:43.439Z,1.70
2018-12-18T13:14:10.169Z,1.63
2018-12-18T13:16:36.868Z,1.37
2018-12-18T13:19:03.745Z,1.50
2018-12-18T13:21:30.457Z,1.90
2018-12-18T13:23:57.257Z,1.40
2018-12-18T13:26:24.156Z,1.80
2018-12-18T13:28:51.837Z,2.00
2018-12-18T13:31:18.527Z,1.57
2018-12-18T13:33:45.242Z,1.57
2018-12-18T13:36:11.936Z,1.70
2018-12-18T13:38:38.653Z,2.13
2018-12-18T13:41:05.343Z,1.40
2018-12-18T13:43:32.044Z,1.43
2018-12-18T13:45:58.760Z,1.40
2018-12-18T13:48:25.560Z,1.30
2018-12-18T13:50:52.309Z,1.83
2018-12-18T13:53:18.992Z,1.40
2018-12-18T13:55:45.717Z,1.10
2018-12-18T13:58:12.404Z,1.43
2018-12-18T14:00:39.119Z,1.90
2018-12-18T14:03:05.830Z,1.30
2018-12-18T14:05:32.542Z,1.40
2018-12-18T14:07:59.236Z,2.10
2018-12-18T14:10:25.999Z,2.07
2018-12-18T14:12:57.024Z,1.40
2018-12-18T14:15:24.291Z,1.30
2018-12-18T14:17:51.033Z,1.40
2018-12-18T14:20:17.759Z,1.60
2018-12-18T14:22:44.448Z,1.57
2018-12-18T14:25:11.159Z,1.40
2018-12-18T14:27:37.849Z,1.60
2018-12-18T14:30:05.251Z,1.50
2018-12-18T14:32:31.962Z,1.40
2018-12-18T14:34:58.860Z,1.77
2018-12-18T14:37:25.728Z,1.20
2018-12-18T14:39:52.435Z,1.43
2018-12-18T14:42:19.133Z,1.30
2018-12-18T14:44:45.859Z,1.40
2018-12-18T14:47:12.543Z,1.50
2018-12-18T14:49:39.268Z,1.20
2018-12-18T14:52:05.952Z,1.90
2018-12-18T14:54:32.735Z,1.37
2018-12-18T14:56:59.429Z,1.57
2018-12-18T14:59:26.439Z,1.67
2018-12-18T15:01:53.121Z,1.90
2018-12-18T15:04:19.839Z,1.60
2018-12-18T15:06:46.526Z,1.60
2018-12-18T15:09:14.224Z,1.43
2018-12-18T15:11:40.911Z,1.40
2018-12-18T15:14:07.633Z,1.60
2018-12-18T15:16:34.339Z,1.67
2018-12-18T15:19:01.082Z,1.80
2018-12-18T15:21:27.852Z,1.60
2018-12-18T15:23:54.556Z,1.30
2018-12-18T15:26:21.352Z,1.30
2018-12-18T15:28:48.038Z,1.57
2018-12-18T15:31:15.621Z,1.33
2018-12-18T15:33:42.322Z,1.37
2018-12-18T15:36:09.038Z,1.30
2018-12-18T15:38:35.955Z,1.80
2018-12-18T15:41:02.748Z,1.67
2018-12-18T15:43:29.675Z,1.50
2018-12-18T15:45:56.550Z,1.77
2018-12-18T15:48:23.313Z,1.50
2018-12-18T15:50:50.037Z,1.40
2018-12-18T15:53:16.723Z,1.53
2018-12-18T15:55:43.515Z,1.40
2018-12-18T15:58:10.198Z,1.63
2018-12-18T16:00:36.974Z,1.60
2018-12-18T16:03:03.661Z,1.17
2018-12-18T16:05:30.454Z,1.20
2018-12-18T16:07:57.299Z,1.37
2018-12-18T16:10:24.024Z,1.40
2018-12-18T16:12:50.719Z,1.17
2018-12-18T16:15:17.442Z,1.80
2018-12-18T16:17:44.141Z,1.40
2018-12-18T16:20:10.871Z,1.47
2018-12-18T16:22:37.562Z,1.50
2018-12-18T16:25:04.656Z,1.20
2018-12-18T16:27:31.371Z,1.70
2018-12-18T16:30:00.355Z,1.23
2018-12-18T16:32:27.267Z,1.50
2018-12-18T16:34:53.981Z,1.30
2018-12-18T16:37:23.152Z,1.50
2018-12-18T16:39:49.468Z,1.33
2018-12-18T16:42:16.156Z,1.20
2018-12-18T16:44:42.912Z,1.13
2018-12-18T16:47:09.601Z,1.40
2018-12-18T16:49:36.311Z,1.20
2018-12-18T16:52:03.213Z,1.50
2018-12-18T16:54:30.025Z,1.63
2018-12-18T16:56:56.952Z,1.30
2018-12-18T16:59:23.640Z,1.70
2018-12-18T17:01:50.355Z,1.50
2018-12-18T17:04:17.054Z,1.40
2018-12-18T17:06:43.783Z,1.73
2018-12-18T17:09:10.469Z,1.90
2018-12-18T17:11:37.324Z,1.30
2018-12-18T17:14:04.067Z,1.50
2018-12-18T17:16:30.856Z,1.87
2018-12-18T17:18:57.665Z,1.50
2018-12-18T17:21:24.377Z,2.50
2018-12-18T17:23:51.058Z,2.03
2018-12-18T17:26:17.768Z,1.90
2018-12-18T17:28:44.506Z,3.00
2018-12-18T17:31:11.220Z,2.90
2018-12-18T17:33:38.029Z,1.70
2018-12-18T17:36:04.942Z,1.50
2018-12-18T17:38:31.637Z,1.10
2018-12-18T17:40:58.493Z,1.60
2018-12-18T17:43:25.758Z,2.23
2018-12-18T17:45:52.463Z,1.70
2018-12-18T17:48:19.143Z,1.90
2018-12-18T17:50:45.868Z,1.57
2018-12-18T17:53:12.558Z,1.87
2018-12-18T17:55:39.273Z,1.73
2018-12-18T17:58:06.007Z,1.27
2018-12-18T18:00:32.724Z,1.80
2018-12-18T18:02:59.572Z,1.50
2018-12-18T18:05:26.274Z,1.90
2018-12-18T18:07:52.953Z,1.97
2018-12-18T18:10:19.656Z,1.93
2018-12-18T18:12:46.341Z,2.00
2018-12-18T18:15:13.370Z,2.20
2018-12-18T18:17:40.084Z,2.10
2018-12-18T18:20:07.119Z,1.50
2018-12-18T18:22:34.675Z,1.70
2018-12-18T18:25:01.380Z,1.50
2018-12-18T18:27:28.296Z,1.90
2018-12-18T18:29:54.972Z,2.20
2018-12-18T18:32:21.691Z,1.93
2018-12-18T18:34:48.370Z,1.87
2018-12-18T18:37:15.088Z,2.17
2018-12-18T18:39:41.769Z,1.60
2018-12-18T18:42:08.606Z,1.87
2018-12-18T18:44:35.324Z,1.73
2018-12-18T18:47:02.153Z,1.63
2018-12-18T18:49:28.858Z,1.60
2018-12-18T18:51:55.619Z,2.30
2018-12-18T18:54:22.290Z,1.43
2018-12-18T18:56:49.001Z,2.30
2018-12-18T18:59:15.679Z,1.93
2018-12-18T19:01:42.384Z,1.67
2018-12-18T19:04:09.395Z,1.17
2018-12-18T19:06:36.162Z,1.67
2018-12-18T19:09:03.840Z,2.10
2018-12-18T19:11:30.765Z,1.50
2018-12-18T19:13:57.487Z,1.63
2018-12-18T19:16:24.197Z,2.10
2018-12-18T19:18:50.888Z,1.93
2018-12-18T19:21:17.598Z,2.13
2018-12-18T19:23:44.284Z,1.80
2018-12-18T19:26:10.992Z,2.27
2018-12-18T19:28:37.792Z,1.93
2018-12-18T19:31:04.506Z,1.90
2018-12-18T19:33:36.829Z,1.57
2018-12-18T19:36:00.211Z,1.50
2018-12-18T19:38:26.940Z,1.73
2018-12-18T19:40:53.657Z,2.30
2018-12-18T19:43:20.332Z,2.00
2018-12-18T19:45:47.048Z,1.90
2018-12-18T19:48:13.729Z,1.83
2018-12-18T19:50:40.448Z,3.73
2018-12-18T19:53:07.152Z,2.00
2018-12-18T19:55:40.047Z,1.90
2018-12-18T19:58:07.053Z,2.30
2018-12-18T20:00:33.884Z,2.13
2018-12-18T20:03:00.754Z,1.73
2018-12-18T20:05:27.437Z,2.33
2018-12-18T20:07:54.513Z,2.20
2018-12-18T20:10:21.191Z,2.57
2018-12-18T20:12:47.903Z,2.17
2018-12-18T20:15:14.579Z,2.00
2018-12-18T20:17:41.289Z,2.70
2018-12-18T20:20:08.348Z,2.00
2018-12-18T20:22:35.162Z,1.83
2018-12-18T20:25:01.882Z,2.00
2018-12-18T20:27:28.596Z,2.10
2018-12-18T20:29:55.272Z,2.20
2018-12-18T20:32:21.980Z,1.50
2018-12-18T20:34:48.666Z,1.83
2018-12-18T20:37:18.160Z,2.27
2018-12-18T20:39:44.190Z,1.70
2018-12-18T20:42:11.033Z,2.23
2018-12-18T20:44:37.716Z,2.00
2018-12-18T20:47:04.494Z,2.37
2018-12-18T20:49:31.373Z,2.20
2018-12-18T20:51:58.080Z,2.07
2018-12-18T20:54:24.764Z,2.50
2018-12-18T20:56:51.469Z,2.03
2018-12-18T20:59:18.152Z,2.07
2018-12-18T21:01:44.868Z,2.63
2018-12-18T21:04:11.600Z,1.87
2018-12-18T21:06:38.308Z,1.80
2018-12-18T21:09:06.165Z,2.00
2018-12-18T21:11:33.059Z,1.90
2018-12-18T21:13:59.760Z,2.50
2018-12-18T21:16:26.535Z,2.50
2018-12-18T21:18:53.222Z,1.90
2018-12-18T21:21:19.907Z,2.63
2018-12-18T21:23:46.620Z,1.50
2018-12-18T21:26:13.392Z,2.40
2018-12-18T21:28:40.100Z,1.93
2018-12-18T21:31:06.780Z,1.83
2018-12-18T21:33:33.551Z,2.57
2018-12-18T21:36:00.231Z,1.90
2018-12-18T21:38:30.236Z,2.43
2018-12-18T21:40:55.636Z,2.42
2018-12-18T21:43:22.344Z,2.30
2018-12-18T21:45:49.031Z,2.27
2018-12-18T21:48:15.744Z,2.50
2018-12-18T21:50:42.540Z,2.27
2018-12-18T21:53:09.445Z,2.30
2018-12-18T21:55:36.330Z,2.20
2018-12-18T21:58:03.291Z,2.20
2018-12-18T22:00:29.980Z,2.10
2018-12-18T22:02:56.746Z,2.00
2018-12-18T22:05:23.419Z,2.47
2018-12-18T22:07:50.230Z,2.17
2018-12-18T22:10:16.908Z,2.57
2018-12-18T22:12:43.687Z,2.30
2018-12-18T22:15:10.444Z,1.93
2018-12-18T22:17:37.187Z,2.57
2018-12-18T22:20:04.577Z,2.50
2018-12-18T22:22:31.299Z,2.50
2018-12-18T22:24:57.971Z,2.20
2018-12-18T22:27:24.680Z,1.70
2018-12-18T22:29:51.436Z,2.70
2018-12-18T22:32:18.281Z,2.67
2018-12-18T22:34:45.054Z,3.43
2018-12-18T22:37:11.762Z,2.50
2018-12-18T22:39:38.434Z,2.67
2018-12-18T22:42:05.471Z,2.20
2018-12-18T22:44:32.152Z,2.53
2018-12-18T22:46:58.867Z,3.53
2018-12-18T22:49:25.540Z,3.13
2018-12-18T22:51:52.214Z,3.73
2018-12-18T22:54:18.918Z,4.00
2018-12-18T22:56:45.601Z,2.97
2018-12-18T22:59:12.301Z,3.77
2018-12-18T23:01:45.097Z,3.87
2018-12-18T23:04:12.485Z,3.73
2018-12-18T23:06:39.315Z,4.50
2018-12-18T23:09:06.670Z,4.33
2018-12-18T23:11:33.545Z,3.00
2018-12-18T23:14:00.302Z,3.30
2018-12-18T23:16:26.979Z,3.27
2018-12-18T23:18:53.691Z,2.97
2018-12-18T23:21:20.376Z,3.35
2018-12-18T23:23:47.080Z,2.93
2018-12-18T23:26:13.916Z,2.73
2018-12-18T23:28:40.736Z,3.50
2018-12-18T23:31:07.554Z,2.80
2018-12-18T23:33:34.510Z,3.53
2018-12-18T23:36:01.260Z,2.60
2018-12-18T23:38:27.977Z,2.40
2018-12-18T23:40:54.732Z,2.37
2018-12-18T23:43:21.439Z,2.60
2018-12-18T23:45:48.127Z,2.40
2018-12-18T23:48:14.897Z,2.33
2018-12-18T23:50:41.608Z,2.60
2018-12-18T23:53:08.422Z,2.17
2018-12-18T23:55:35.267Z,3.10
2018-12-18T23:58:01.992Z,3.30
